sensor_id;sensor_type;location;lat;lon;timestamp;temperature;humidity
27940;DHT22;15275;51.716;14.324;2023-07-13T00:00:37;26.60;51.50
27940;DHT22;15275;51.716;14.324;2023-07-13T00:03:04;26.50;51.60
27940;DHT22;15275;51.716;14.324;2023-07-13T00:05:30;26.50;51.70
27940;DHT22;15275;51.716;14.324;2023-07-13T00:07:57;26.50;51.70
27940;DHT22;15275;51.716;14.324;2023-07-13T00:10:23;26.50;51.50
27940;DHT22;15275;51.716;14.324;2023-07-13T00:12:49;26.50;51.30
27940;DHT22;15275;51.716;14.324;2023-07-13T00:15:24;26.50;51.20
27940;DHT22;15275;51.716;14.324;2023-07-13T00:17:52;26.50;51.10
27940;DHT22;15275;51.716;14.324;2023-07-13T00:20:20;26.40;50.80
27940;DHT22;15275;51.716;14.324;2023-07-13T00:22:48;26.40;50.80
27940;DHT22;15275;51.716;14.324;2023-07-13T00:25:15;26.40;50.90
27940;DHT22;15275;51.716;14.324;2023-07-13T00:27:44;26.40;50.90
27940;DHT22;15275;51.716;14.324;2023-07-13T00:30:13;26.40;50.90
27940;DHT22;15275;51.716;14.324;2023-07-13T00:32:39;26.40;51.30
27940;DHT22;15275;51.716;14.324;2023-07-13T00:35:07;26.40;51.50
27940;DHT22;15275;51.716;14.324;2023-07-13T00:37:33;26.40;51.70
27940;DHT22;15275;51.716;14.324;2023-07-13T00:40:02;26.30;51.60
27940;DHT22;15275;51.716;14.324;2023-07-13T00:42:30;26.30;51.40
27940;DHT22;15275;51.716;14.324;2023-07-13T00:47:37;26.20;50.80
27940;DHT22;15275;51.716;14.324;2023-07-13T00:50:11;26.20;50.80
27940;DHT22;15275;51.716;14.324;2023-07-13T00:52:43;26.10;50.80
27940;DHT22;15275;51.716;14.324;2023-07-13T00:55:12;26.10;50.80
27940;DHT22;15275;51.716;14.324;2023-07-13T00:57:40;26.00;50.70
27940;DHT22;15275;51.716;14.324;2023-07-13T01:00:08;26.00;50.60
27940;DHT22;15275;51.716;14.324;2023-07-13T01:02:40;25.90;51.20
27940;DHT22;15275;51.716;14.324;2023-07-13T01:05:18;25.90;50.70
27940;DHT22;15275;51.716;14.324;2023-07-13T01:07:46;25.90;50.50
27940;DHT22;15275;51.716;14.324;2023-07-13T01:10:29;25.80;50.40
27940;DHT22;15275;51.716;14.324;2023-07-13T01:12:55;25.80;50.40
27940;DHT22;15275;51.716;14.324;2023-07-13T01:15:42;25.70;50.40
27940;DHT22;15275;51.716;14.324;2023-07-13T01:18:16;25.70;50.80
27940;DHT22;15275;51.716;14.324;2023-07-13T01:20:58;25.70;50.80
27940;DHT22;15275;51.716;14.324;2023-07-13T01:23:27;25.60;50.90
27940;DHT22;15275;51.716;14.324;2023-07-13T01:25:54;25.60;50.90
27940;DHT22;15275;51.716;14.324;2023-07-13T01:28:22;25.50;51.00
27940;DHT22;15275;51.716;14.324;2023-07-13T01:30:50;25.50;51.10
27940;DHT22;15275;51.716;14.324;2023-07-13T01:33:18;25.50;51.20
27940;DHT22;15275;51.716;14.324;2023-07-13T01:35:45;25.50;51.30
27940;DHT22;15275;51.716;14.324;2023-07-13T01:38:14;25.50;51.30
27940;DHT22;15275;51.716;14.324;2023-07-13T01:40:42;25.50;51.30
27940;DHT22;15275;51.716;14.324;2023-07-13T01:43:08;25.50;51.10
27940;DHT22;15275;51.716;14.324;2023-07-13T01:45:33;25.40;51.20
27940;DHT22;15275;51.716;14.324;2023-07-13T01:47:59;25.40;51.30
27940;DHT22;15275;51.716;14.324;2023-07-13T01:50:26;25.40;51.30
27940;DHT22;15275;51.716;14.324;2023-07-13T01:52:52;25.40;51.40
27940;DHT22;15275;51.716;14.324;2023-07-13T01:55:20;25.40;51.30
27940;DHT22;15275;51.716;14.324;2023-07-13T01:57:46;25.40;51.30
27940;DHT22;15275;51.716;14.324;2023-07-13T02:00:13;25.40;51.30
27940;DHT22;15275;51.716;14.324;2023-07-13T02:02:39;25.40;51.40
27940;DHT22;15275;51.716;14.324;2023-07-13T02:05:06;25.40;51.40
27940;DHT22;15275;51.716;14.324;2023-07-13T02:07:32;25.40;51.30
27940;DHT22;15275;51.716;14.324;2023-07-13T02:09:58;25.40;51.30
27940;DHT22;15275;51.716;14.324;2023-07-13T02:12:24;25.40;51.30
27940;DHT22;15275;51.716;14.324;2023-07-13T02:14:50;25.40;51.20
27940;DHT22;15275;51.716;14.324;2023-07-13T02:17:16;25.40;51.40
27940;DHT22;15275;51.716;14.324;2023-07-13T02:19:42;25.40;51.50
27940;DHT22;15275;51.716;14.324;2023-07-13T02:22:08;25.40;51.60
27940;DHT22;15275;51.716;14.324;2023-07-13T02:24:34;25.40;51.80
27940;DHT22;15275;51.716;14.324;2023-07-13T02:26:59;25.40;51.80
27940;DHT22;15275;51.716;14.324;2023-07-13T02:29:25;25.40;52.00
27940;DHT22;15275;51.716;14.324;2023-07-13T02:31:51;25.40;52.00
27940;DHT22;15275;51.716;14.324;2023-07-13T02:34:17;25.40;52.00
27940;DHT22;15275;51.716;14.324;2023-07-13T02:36:43;25.40;51.90
27940;DHT22;15275;51.716;14.324;2023-07-13T02:39:11;25.40;51.70
27940;DHT22;15275;51.716;14.324;2023-07-13T02:41:38;25.30;51.60
27940;DHT22;15275;51.716;14.324;2023-07-13T02:44:04;25.30;51.50
27940;DHT22;15275;51.716;14.324;2023-07-13T02:46:35;25.30;51.70
27940;DHT22;15275;51.716;14.324;2023-07-13T02:49:02;25.20;51.90
27940;DHT22;15275;51.716;14.324;2023-07-13T02:51:28;25.20;51.80
27940;DHT22;15275;51.716;14.324;2023-07-13T02:53:54;25.20;51.80
27940;DHT22;15275;51.716;14.324;2023-07-13T02:56:26;25.20;51.80
27940;DHT22;15275;51.716;14.324;2023-07-13T02:58:53;25.10;52.20
27940;DHT22;15275;51.716;14.324;2023-07-13T03:01:20;25.10;52.10
27940;DHT22;15275;51.716;14.324;2023-07-13T03:03:46;25.00;52.10
27940;DHT22;15275;51.716;14.324;2023-07-13T03:06:13;25.00;52.20
27940;DHT22;15275;51.716;14.324;2023-07-13T03:08:39;24.90;52.30
27940;DHT22;15275;51.716;14.324;2023-07-13T03:11:19;24.90;52.40
27940;DHT22;15275;51.716;14.324;2023-07-13T03:13:45;24.90;52.70
27940;DHT22;15275;51.716;14.324;2023-07-13T03:16:12;24.90;52.50
27940;DHT22;15275;51.716;14.324;2023-07-13T03:18:41;24.80;52.50
27940;DHT22;15275;51.716;14.324;2023-07-13T03:21:07;24.80;52.60
27940;DHT22;15275;51.716;14.324;2023-07-13T03:23:33;24.80;52.70
27940;DHT22;15275;51.716;14.324;2023-07-13T03:26:11;24.70;52.80
27940;DHT22;15275;51.716;14.324;2023-07-13T03:28:40;24.70;53.10
27940;DHT22;15275;51.716;14.324;2023-07-13T03:31:09;24.70;52.90
27940;DHT22;15275;51.716;14.324;2023-07-13T03:33:37;24.70;53.10
27940;DHT22;15275;51.716;14.324;2023-07-13T03:36:05;24.70;53.10
27940;DHT22;15275;51.716;14.324;2023-07-13T03:38:31;24.60;53.20
27940;DHT22;15275;51.716;14.324;2023-07-13T03:40:58;24.60;53.30
27940;DHT22;15275;51.716;14.324;2023-07-13T03:43:24;24.60;53.30
27940;DHT22;15275;51.716;14.324;2023-07-13T03:45:50;24.60;53.40
27940;DHT22;15275;51.716;14.324;2023-07-13T03:48:15;24.60;53.60
27940;DHT22;15275;51.716;14.324;2023-07-13T03:50:41;24.60;53.80
27940;DHT22;15275;51.716;14.324;2023-07-13T03:53:08;24.60;53.90
27940;DHT22;15275;51.716;14.324;2023-07-13T03:55:34;24.60;54.00
27940;DHT22;15275;51.716;14.324;2023-07-13T04:01:00;24.60;54.50
27940;DHT22;15275;51.716;14.324;2023-07-13T04:03:28;24.60;54.20
27940;DHT22;15275;51.716;14.324;2023-07-13T04:05:55;24.60;54.20
27940;DHT22;15275;51.716;14.324;2023-07-13T04:08:29;24.60;54.50
27940;DHT22;15275;51.716;14.324;2023-07-13T04:10:57;24.60;54.50
27940;DHT22;15275;51.716;14.324;2023-07-13T04:13:24;24.60;54.60
27940;DHT22;15275;51.716;14.324;2023-07-13T04:15:51;24.60;54.60
27940;DHT22;15275;51.716;14.324;2023-07-13T04:18:18;24.70;54.80
27940;DHT22;15275;51.716;14.324;2023-07-13T04:20:49;24.70;54.90
27940;DHT22;15275;51.716;14.324;2023-07-13T04:23:16;24.70;54.90
27940;DHT22;15275;51.716;14.324;2023-07-13T04:25:47;24.70;54.90
27940;DHT22;15275;51.716;14.324;2023-07-13T04:28:15;24.70;55.00
27940;DHT22;15275;51.716;14.324;2023-07-13T04:30:43;24.70;54.70
27940;DHT22;15275;51.716;14.324;2023-07-13T04:33:09;24.70;54.80
27940;DHT22;15275;51.716;14.324;2023-07-13T04:35:35;24.70;54.80
27940;DHT22;15275;51.716;14.324;2023-07-13T04:38:03;24.70;54.80
27940;DHT22;15275;51.716;14.324;2023-07-13T04:40:29;24.70;54.80
27940;DHT22;15275;51.716;14.324;2023-07-13T04:42:55;24.80;54.70
27940;DHT22;15275;51.716;14.324;2023-07-13T04:45:22;24.70;54.90
27940;DHT22;15275;51.716;14.324;2023-07-13T04:47:49;24.70;55.00
27940;DHT22;15275;51.716;14.324;2023-07-13T04:50:15;24.80;55.10
27940;DHT22;15275;51.716;14.324;2023-07-13T04:52:46;24.80;55.10
27940;DHT22;15275;51.716;14.324;2023-07-13T04:55:12;24.80;55.10
27940;DHT22;15275;51.716;14.324;2023-07-13T04:57:38;24.80;55.10
27940;DHT22;15275;51.716;14.324;2023-07-13T05:00:06;24.80;55.00
27940;DHT22;15275;51.716;14.324;2023-07-13T05:02:34;24.90;55.00
27940;DHT22;15275;51.716;14.324;2023-07-13T05:05:00;24.90;54.90
27940;DHT22;15275;51.716;14.324;2023-07-13T05:07:27;24.90;54.90
27940;DHT22;15275;51.716;14.324;2023-07-13T05:09:53;24.90;54.80
27940;DHT22;15275;51.716;14.324;2023-07-13T05:12:18;24.90;54.80
27940;DHT22;15275;51.716;14.324;2023-07-13T05:14:44;24.90;54.90
27940;DHT22;15275;51.716;14.324;2023-07-13T05:17:10;24.90;55.00
27940;DHT22;15275;51.716;14.324;2023-07-13T05:19:36;24.90;55.00
27940;DHT22;15275;51.716;14.324;2023-07-13T05:22:03;24.90;55.20
27940;DHT22;15275;51.716;14.324;2023-07-13T05:24:29;24.90;55.20
27940;DHT22;15275;51.716;14.324;2023-07-13T05:26:56;24.90;55.10
27940;DHT22;15275;51.716;14.324;2023-07-13T05:29:22;25.00;55.20
27940;DHT22;15275;51.716;14.324;2023-07-13T05:31:49;25.00;55.20
27940;DHT22;15275;51.716;14.324;2023-07-13T05:34:15;25.00;55.20
27940;DHT22;15275;51.716;14.324;2023-07-13T05:36:41;24.90;55.20
27940;DHT22;15275;51.716;14.324;2023-07-13T05:39:07;25.00;55.40
27940;DHT22;15275;51.716;14.324;2023-07-13T05:41:33;25.00;55.40
27940;DHT22;15275;51.716;14.324;2023-07-13T05:43:59;25.00;55.30
27940;DHT22;15275;51.716;14.324;2023-07-13T05:46:25;25.00;55.20
27940;DHT22;15275;51.716;14.324;2023-07-13T05:48:51;25.00;55.40
27940;DHT22;15275;51.716;14.324;2023-07-13T05:51:17;25.10;55.40
27940;DHT22;15275;51.716;14.324;2023-07-13T05:53:43;25.10;55.50
27940;DHT22;15275;51.716;14.324;2023-07-13T05:56:09;25.10;55.60
27940;DHT22;15275;51.716;14.324;2023-07-13T05:58:35;25.20;55.40
27940;DHT22;15275;51.716;14.324;2023-07-13T06:01:08;25.20;55.30
27940;DHT22;15275;51.716;14.324;2023-07-13T06:03:36;25.20;55.30
27940;DHT22;15275;51.716;14.324;2023-07-13T06:06:06;25.30;55.30
27940;DHT22;15275;51.716;14.324;2023-07-13T06:08:34;25.30;55.20
27940;DHT22;15275;51.716;14.324;2023-07-13T06:11:11;25.30;55.10
27940;DHT22;15275;51.716;14.324;2023-07-13T06:13:43;25.40;55.40
27940;DHT22;15275;51.716;14.324;2023-07-13T06:16:09;25.40;55.20
27940;DHT22;15275;51.716;14.324;2023-07-13T06:18:37;25.40;55.20
27940;DHT22;15275;51.716;14.324;2023-07-13T06:21:08;25.40;55.10
27940;DHT22;15275;51.716;14.324;2023-07-13T06:23:35;25.40;55.20
27940;DHT22;15275;51.716;14.324;2023-07-13T06:26:02;25.40;55.30
27940;DHT22;15275;51.716;14.324;2023-07-13T06:28:29;25.50;55.50
27940;DHT22;15275;51.716;14.324;2023-07-13T06:30:57;25.60;55.40
27940;DHT22;15275;51.716;14.324;2023-07-13T06:33:24;25.70;55.30
27940;DHT22;15275;51.716;14.324;2023-07-13T06:35:50;25.80;55.30
27940;DHT22;15275;51.716;14.324;2023-07-13T06:38:16;25.90;54.90
27940;DHT22;15275;51.716;14.324;2023-07-13T06:40:42;25.90;54.80
27940;DHT22;15275;51.716;14.324;2023-07-13T06:43:08;26.00;54.90
27940;DHT22;15275;51.716;14.324;2023-07-13T06:45:54;26.00;54.80
27940;DHT22;15275;51.716;14.324;2023-07-13T06:48:21;26.10;54.80
27940;DHT22;15275;51.716;14.324;2023-07-13T06:50:48;26.20;54.60
27940;DHT22;15275;51.716;14.324;2023-07-13T06:53:17;26.30;54.30
27940;DHT22;15275;51.716;14.324;2023-07-13T06:55:44;26.40;54.10
27940;DHT22;15275;51.716;14.324;2023-07-13T06:58:10;26.40;53.80
27940;DHT22;15275;51.716;14.324;2023-07-13T07:00:36;26.40;53.80
27940;DHT22;15275;51.716;14.324;2023-07-13T07:03:02;26.50;53.70
27940;DHT22;15275;51.716;14.324;2023-07-13T07:05:28;26.50;53.70
27940;DHT22;15275;51.716;14.324;2023-07-13T07:07:55;26.50;53.50
27940;DHT22;15275;51.716;14.324;2023-07-13T07:10:21;26.60;53.40
27940;DHT22;15275;51.716;14.324;2023-07-13T07:12:47;26.70;53.40
27940;DHT22;15275;51.716;14.324;2023-07-13T07:15:13;26.70;52.70
27940;DHT22;15275;51.716;14.324;2023-07-13T07:17:40;26.70;52.20
27940;DHT22;15275;51.716;14.324;2023-07-13T07:20:06;26.80;52.50
27940;DHT22;15275;51.716;14.324;2023-07-13T07:22:33;26.80;51.80
27940;DHT22;15275;51.716;14.324;2023-07-13T07:24:59;26.80;51.80
27940;DHT22;15275;51.716;14.324;2023-07-13T07:27:25;26.90;51.60
27940;DHT22;15275;51.716;14.324;2023-07-13T07:29:51;26.90;51.20
27940;DHT22;15275;51.716;14.324;2023-07-13T07:32:18;26.90;51.00
27940;DHT22;15275;51.716;14.324;2023-07-13T07:34:44;26.90;51.10
27940;DHT22;15275;51.716;14.324;2023-07-13T07:37:12;27.00;51.00
27940;DHT22;15275;51.716;14.324;2023-07-13T07:39:39;27.10;51.00
27940;DHT22;15275;51.716;14.324;2023-07-13T07:42:06;27.10;50.60
27940;DHT22;15275;51.716;14.324;2023-07-13T07:44:33;27.20;50.30
27940;DHT22;15275;51.716;14.324;2023-07-13T07:46:59;27.20;50.50
27940;DHT22;15275;51.716;14.324;2023-07-13T07:49:26;27.30;50.50
27940;DHT22;15275;51.716;14.324;2023-07-13T07:51:52;27.40;50.60
27940;DHT22;15275;51.716;14.324;2023-07-13T07:54:18;27.40;50.60
27940;DHT22;15275;51.716;14.324;2023-07-13T07:56:44;27.60;50.60
27940;DHT22;15275;51.716;14.324;2023-07-13T07:59:10;27.70;50.50
27940;DHT22;15275;51.716;14.324;2023-07-13T08:01:36;27.80;50.50
27940;DHT22;15275;51.716;14.324;2023-07-13T08:04:02;27.90;50.50
27940;DHT22;15275;51.716;14.324;2023-07-13T08:06:29;28.10;50.20
27940;DHT22;15275;51.716;14.324;2023-07-13T08:08:55;28.20;50.00
27940;DHT22;15275;51.716;14.324;2023-07-13T08:11:21;28.30;49.80
27940;DHT22;15275;51.716;14.324;2023-07-13T08:13:47;28.30;49.50
27940;DHT22;15275;51.716;14.324;2023-07-13T08:16:15;28.40;49.30
27940;DHT22;15275;51.716;14.324;2023-07-13T08:18:41;28.50;49.10
27940;DHT22;15275;51.716;14.324;2023-07-13T08:21:08;28.50;48.50
27940;DHT22;15275;51.716;14.324;2023-07-13T08:23:35;28.50;48.50
27940;DHT22;15275;51.716;14.324;2023-07-13T08:26:02;28.50;48.40
27940;DHT22;15275;51.716;14.324;2023-07-13T08:28:30;28.60;48.20
27940;DHT22;15275;51.716;14.324;2023-07-13T08:31:05;28.70;48.10
27940;DHT22;15275;51.716;14.324;2023-07-13T08:33:33;28.70;47.60
27940;DHT22;15275;51.716;14.324;2023-07-13T08:36:00;28.80;47.80
27940;DHT22;15275;51.716;14.324;2023-07-13T08:38:26;28.90;47.60
27940;DHT22;15275;51.716;14.324;2023-07-13T08:40:56;29.00;47.20
27940;DHT22;15275;51.716;14.324;2023-07-13T08:43:28;29.00;46.90
27940;DHT22;15275;51.716;14.324;2023-07-13T08:46:02;29.20;46.70
27940;DHT22;15275;51.716;14.324;2023-07-13T08:51:26;29.30;47.20
27940;DHT22;15275;51.716;14.324;2023-07-13T08:57:19;29.40;46.20
27940;DHT22;15275;51.716;14.324;2023-07-13T08:59:46;29.50;46.70
27940;DHT22;15275;51.716;14.324;2023-07-13T09:02:21;29.50;46.80
27940;DHT22;15275;51.716;14.324;2023-07-13T09:05:57;29.60;46.50
27940;DHT22;15275;51.716;14.324;2023-07-13T09:10:54;29.70;46.10
27940;DHT22;15275;51.716;14.324;2023-07-13T09:13:48;29.80;46.70
27940;DHT22;15275;51.716;14.324;2023-07-13T09:16:21;29.80;46.40
27940;DHT22;15275;51.716;14.324;2023-07-13T09:18:50;29.90;46.50
27940;DHT22;15275;51.716;14.324;2023-07-13T09:21:33;30.00;46.10
27940;DHT22;15275;51.716;14.324;2023-07-13T09:24:26;30.10;46.20
27940;DHT22;15275;51.716;14.324;2023-07-13T09:27:27;30.10;45.80
27940;DHT22;15275;51.716;14.324;2023-07-13T09:32:47;30.20;45.70
27940;DHT22;15275;51.716;14.324;2023-07-13T09:35:20;30.20;45.50
27940;DHT22;15275;51.716;14.324;2023-07-13T09:37:49;30.20;45.30
27940;DHT22;15275;51.716;14.324;2023-07-13T09:41:11;30.20;45.40
27940;DHT22;15275;51.716;14.324;2023-07-13T09:43:24;30.20;44.80
27940;DHT22;15275;51.716;14.324;2023-07-13T09:45:51;30.10;45.00
27940;DHT22;15275;51.716;14.324;2023-07-13T09:48:18;30.10;45.10
27940;DHT22;15275;51.716;14.324;2023-07-13T09:50:44;30.10;45.30
27940;DHT22;15275;51.716;14.324;2023-07-13T09:53:15;30.20;45.40
27940;DHT22;15275;51.716;14.324;2023-07-13T09:55:44;30.20;45.00
27940;DHT22;15275;51.716;14.324;2023-07-13T10:00:59;30.20;44.90
27940;DHT22;15275;51.716;14.324;2023-07-13T10:03:33;30.20;44.80
27940;DHT22;15275;51.716;14.324;2023-07-13T10:06:29;30.10;44.80
27940;DHT22;15275;51.716;14.324;2023-07-13T10:08:57;30.00;45.10
27940;DHT22;15275;51.716;14.324;2023-07-13T10:11:28;30.10;45.50
27940;DHT22;15275;51.716;14.324;2023-07-13T10:14:03;30.10;45.10
27940;DHT22;15275;51.716;14.324;2023-07-13T10:16:35;30.10;45.20
27940;DHT22;15275;51.716;14.324;2023-07-13T10:19:29;30.20;45.50
27940;DHT22;15275;51.716;14.324;2023-07-13T10:22:13;30.30;44.50
27940;DHT22;15275;51.716;14.324;2023-07-13T10:24:45;30.40;44.50
27940;DHT22;15275;51.716;14.324;2023-07-13T10:27:19;30.50;44.20
27940;DHT22;15275;51.716;14.324;2023-07-13T10:30:33;30.60;43.50
27940;DHT22;15275;51.716;14.324;2023-07-13T10:32:53;30.70;43.70
27940;DHT22;15275;51.716;14.324;2023-07-13T10:35:23;30.60;43.90
27940;DHT22;15275;51.716;14.324;2023-07-13T10:38:03;30.60;43.80
27940;DHT22;15275;51.716;14.324;2023-07-13T10:40:58;30.50;43.70
27940;DHT22;15275;51.716;14.324;2023-07-13T10:43:45;30.50;43.90
27940;DHT22;15275;51.716;14.324;2023-07-13T10:46:17;30.50;43.80
27940;DHT22;15275;51.716;14.324;2023-07-13T10:48:48;30.50;43.70
27940;DHT22;15275;51.716;14.324;2023-07-13T10:51:18;30.60;43.80
27940;DHT22;15275;51.716;14.324;2023-07-13T10:53:47;30.60;43.70
27940;DHT22;15275;51.716;14.324;2023-07-13T10:56:26;30.60;43.60
27940;DHT22;15275;51.716;14.324;2023-07-13T11:04:47;30.60;43.30
27940;DHT22;15275;51.716;14.324;2023-07-13T11:07:28;30.70;43.10
27940;DHT22;15275;51.716;14.324;2023-07-13T11:09:57;30.70;42.80
27940;DHT22;15275;51.716;14.324;2023-07-13T11:20:22;30.80;43.10
27940;DHT22;15275;51.716;14.324;2023-07-13T11:23:30;30.90;43.30
27940;DHT22;15275;51.716;14.324;2023-07-13T11:25:57;31.00;44.00
27940;DHT22;15275;51.716;14.324;2023-07-13T11:28:27;31.10;43.60
27940;DHT22;15275;51.716;14.324;2023-07-13T11:36:15;31.40;42.50
27940;DHT22;15275;51.716;14.324;2023-07-13T11:38:45;31.50;41.80
27940;DHT22;15275;51.716;14.324;2023-07-13T11:41:34;31.50;41.70
27940;DHT22;15275;51.716;14.324;2023-07-13T11:44:13;31.50;41.30
27940;DHT22;15275;51.716;14.324;2023-07-13T11:46:46;31.50;40.80
27940;DHT22;15275;51.716;14.324;2023-07-13T11:49:21;31.40;41.00
27940;DHT22;15275;51.716;14.324;2023-07-13T11:51:51;31.40;40.90
27940;DHT22;15275;51.716;14.324;2023-07-13T11:54:29;31.30;41.00
27940;DHT22;15275;51.716;14.324;2023-07-13T11:57:17;31.40;40.80
27940;DHT22;15275;51.716;14.324;2023-07-13T12:00:18;31.40;41.20
27940;DHT22;15275;51.716;14.324;2023-07-13T12:02:50;31.50;40.90
27940;DHT22;15275;51.716;14.324;2023-07-13T12:05:19;31.60;40.60
27940;DHT22;15275;51.716;14.324;2023-07-13T12:07:49;31.60;40.50
27940;DHT22;15275;51.716;14.324;2023-07-13T12:13:04;31.60;40.20
27940;DHT22;15275;51.716;14.324;2023-07-13T12:15:44;31.60;40.60
27940;DHT22;15275;51.716;14.324;2023-07-13T12:18:18;31.50;40.40
27940;DHT22;15275;51.716;14.324;2023-07-13T12:20:46;31.50;40.60
27940;DHT22;15275;51.716;14.324;2023-07-13T12:23:34;31.40;40.50
27940;DHT22;15275;51.716;14.324;2023-07-13T12:26:05;31.30;40.40
27940;DHT22;15275;51.716;14.324;2023-07-13T12:28:37;31.20;40.60
27940;DHT22;15275;51.716;14.324;2023-07-13T12:34:01;31.00;40.70
27940;DHT22;15275;51.716;14.324;2023-07-13T12:36:37;30.90;40.80
27940;DHT22;15275;51.716;14.324;2023-07-13T12:42:19;30.80;40.90
27940;DHT22;15275;51.716;14.324;2023-07-13T12:45:00;30.80;41.10
27940;DHT22;15275;51.716;14.324;2023-07-13T12:47:28;30.90;41.20
27940;DHT22;15275;51.716;14.324;2023-07-13T12:49:57;30.90;40.90
27940;DHT22;15275;51.716;14.324;2023-07-13T12:52:33;30.90;41.00
27940;DHT22;15275;51.716;14.324;2023-07-13T12:55:12;30.90;40.80
27940;DHT22;15275;51.716;14.324;2023-07-13T12:57:53;31.00;40.90
27940;DHT22;15275;51.716;14.324;2023-07-13T13:00:30;31.00;40.70
27940;DHT22;15275;51.716;14.324;2023-07-13T13:03:30;31.10;40.50
27940;DHT22;15275;51.716;14.324;2023-07-13T13:06:04;31.10;40.40
27940;DHT22;15275;51.716;14.324;2023-07-13T13:08:47;31.20;40.80
27940;DHT22;15275;51.716;14.324;2023-07-13T13:11:16;31.30;40.60
27940;DHT22;15275;51.716;14.324;2023-07-13T13:13:43;31.40;40.40
27940;DHT22;15275;51.716;14.324;2023-07-13T13:16:46;31.50;39.90
27940;DHT22;15275;51.716;14.324;2023-07-13T13:19:24;31.60;39.40
27940;DHT22;15275;51.716;14.324;2023-07-13T13:21:54;31.70;39.80
27940;DHT22;15275;51.716;14.324;2023-07-13T13:24:24;31.80;39.30
27940;DHT22;15275;51.716;14.324;2023-07-13T13:26:52;31.80;39.30
27940;DHT22;15275;51.716;14.324;2023-07-13T13:29:20;31.90;39.50
27940;DHT22;15275;51.716;14.324;2023-07-13T13:31:50;31.90;39.50
27940;DHT22;15275;51.716;14.324;2023-07-13T13:34:18;31.90;39.30
27940;DHT22;15275;51.716;14.324;2023-07-13T13:36:46;32.00;38.80
27940;DHT22;15275;51.716;14.324;2023-07-13T13:39:20;32.10;39.00
27940;DHT22;15275;51.716;14.324;2023-07-13T13:41:52;32.10;38.70
27940;DHT22;15275;51.716;14.324;2023-07-13T13:44:20;32.20;38.30
27940;DHT22;15275;51.716;14.324;2023-07-13T13:46:48;32.30;38.00
27940;DHT22;15275;51.716;14.324;2023-07-13T13:49:22;32.30;37.40
27940;DHT22;15275;51.716;14.324;2023-07-13T13:51:49;32.30;37.30
27940;DHT22;15275;51.716;14.324;2023-07-13T13:54:17;32.30;37.40
27940;DHT22;15275;51.716;14.324;2023-07-13T13:56:46;32.30;37.70
27940;DHT22;15275;51.716;14.324;2023-07-13T13:59:13;32.30;38.40
27940;DHT22;15275;51.716;14.324;2023-07-13T14:01:41;32.30;38.10
27940;DHT22;15275;51.716;14.324;2023-07-13T14:04:14;32.40;37.90
27940;DHT22;15275;51.716;14.324;2023-07-13T14:06:43;32.50;37.50
27940;DHT22;15275;51.716;14.324;2023-07-13T14:09:14;32.60;38.00
27940;DHT22;15275;51.716;14.324;2023-07-13T14:11:42;32.60;37.30
27940;DHT22;15275;51.716;14.324;2023-07-13T14:14:17;32.70;37.10
27940;DHT22;15275;51.716;14.324;2023-07-13T14:16:45;32.70;37.00
27940;DHT22;15275;51.716;14.324;2023-07-13T14:19:18;32.70;37.00
27940;DHT22;15275;51.716;14.324;2023-07-13T14:21:44;32.70;37.50
27940;DHT22;15275;51.716;14.324;2023-07-13T14:24:11;32.70;36.70
27940;DHT22;15275;51.716;14.324;2023-07-13T14:26:39;32.80;36.50
27940;DHT22;15275;51.716;14.324;2023-07-13T14:29:17;32.80;36.20
27940;DHT22;15275;51.716;14.324;2023-07-13T14:31:44;32.70;36.00
27940;DHT22;15275;51.716;14.324;2023-07-13T14:34:11;32.60;36.40
27940;DHT22;15275;51.716;14.324;2023-07-13T14:36:46;32.60;36.50
27940;DHT22;15275;51.716;14.324;2023-07-13T14:39:23;32.50;36.40
27940;DHT22;15275;51.716;14.324;2023-07-13T14:41:51;32.40;36.60
27940;DHT22;15275;51.716;14.324;2023-07-13T14:44:28;32.20;37.10
27940;DHT22;15275;51.716;14.324;2023-07-13T14:46:55;32.20;37.00
27940;DHT22;15275;51.716;14.324;2023-07-13T14:49:32;32.10;36.90
27940;DHT22;15275;51.716;14.324;2023-07-13T14:52:13;32.10;36.40
27940;DHT22;15275;51.716;14.324;2023-07-13T14:54:42;32.10;36.30
27940;DHT22;15275;51.716;14.324;2023-07-13T14:57:10;32.10;36.50
27940;DHT22;15275;51.716;14.324;2023-07-13T14:59:40;32.10;36.40
27940;DHT22;15275;51.716;14.324;2023-07-13T15:02:33;32.10;36.90
27940;DHT22;15275;51.716;14.324;2023-07-13T15:05:01;32.20;36.80
27940;DHT22;15275;51.716;14.324;2023-07-13T15:07:28;32.20;36.90
27940;DHT22;15275;51.716;14.324;2023-07-13T15:09:54;32.30;36.70
27940;DHT22;15275;51.716;14.324;2023-07-13T15:12:19;32.30;36.60
27940;DHT22;15275;51.716;14.324;2023-07-13T15:14:47;32.30;36.80
27940;DHT22;15275;51.716;14.324;2023-07-13T15:17:36;32.20;36.90
27940;DHT22;15275;51.716;14.324;2023-07-13T15:22:43;32.20;36.80
27940;DHT22;15275;51.716;14.324;2023-07-13T15:25:17;32.10;36.90
27940;DHT22;15275;51.716;14.324;2023-07-13T15:27:46;32.10;36.80
27940;DHT22;15275;51.716;14.324;2023-07-13T15:30:12;32.10;36.90
27940;DHT22;15275;51.716;14.324;2023-07-13T15:32:41;32.20;37.00
27940;DHT22;15275;51.716;14.324;2023-07-13T15:35:16;32.20;36.90
27940;DHT22;15275;51.716;14.324;2023-07-13T15:37:46;32.20;36.50
27940;DHT22;15275;51.716;14.324;2023-07-13T15:40:13;32.30;36.70
27940;DHT22;15275;51.716;14.324;2023-07-13T15:42:41;32.30;36.20
27940;DHT22;15275;51.716;14.324;2023-07-13T15:45:20;32.30;36.20
27940;DHT22;15275;51.716;14.324;2023-07-13T15:47:48;32.30;35.80
27940;DHT22;15275;51.716;14.324;2023-07-13T15:50:25;32.30;36.20
27940;DHT22;15275;51.716;14.324;2023-07-13T15:52:53;32.20;35.70
27940;DHT22;15275;51.716;14.324;2023-07-13T15:55:20;32.10;35.70
27940;DHT22;15275;51.716;14.324;2023-07-13T15:57:52;32.00;35.80
27940;DHT22;15275;51.716;14.324;2023-07-13T16:00:24;32.00;35.50
27940;DHT22;15275;51.716;14.324;2023-07-13T16:02:51;31.90;35.80
27940;DHT22;15275;51.716;14.324;2023-07-13T16:05:19;31.90;36.00
27940;DHT22;15275;51.716;14.324;2023-07-13T16:07:48;31.90;36.10
27940;DHT22;15275;51.716;14.324;2023-07-13T16:10:18;31.90;35.90
27940;DHT22;15275;51.716;14.324;2023-07-13T16:12:46;31.90;35.90
27940;DHT22;15275;51.716;14.324;2023-07-13T16:15:18;31.90;35.80
27940;DHT22;15275;51.716;14.324;2023-07-13T16:17:48;31.90;35.60
27940;DHT22;15275;51.716;14.324;2023-07-13T16:20:18;31.90;35.80
27940;DHT22;15275;51.716;14.324;2023-07-13T16:22:50;31.80;35.90
27940;DHT22;15275;51.716;14.324;2023-07-13T16:25:21;31.70;36.00